Wilmington, OH

9:35 AM EDT on August 05, 2015 (GMT -0400)
Little House On The Prairie | | Change Station
CLOSE
Current Station
Personal Weather Station
Location: Wilmington, OH
Elevation: 1043 ft
Nearby Weather Stations

Elev 1043 ft 39.45 °N, 83.82 °W | Updated 54 seconds ago

Clear
Clear
68.0 °F
Feels Like 68.0 °F
N
0.0
Wind Variable Wind from SE
Gusts 0.0 mph

Today
High -- | Low -- °F
--% Chance of Precip.
Yesterday
High -- | Low -- °F
Precip. -- in
6:38 AM 8:43 PM
Waning Gibbous, 67% visible
Pressure 30.05 in
Visibility 10.0 miles
Clouds Clear
Dew Point 62 °F
Humidity 81%
Rainfall 0.00 in
Snow Depth Not available.
UV 2 out of 12
Pollen 7.40 out of 12
Air Quality Not available.
Flu Activity Not available.
METAR KILN 051254Z AUTO 04004KT 10SM CLR 21/16 A3007 RMK AO2 SLP176 T02110156

More Conditions Fewer Conditions

Pressure 30.05 in
Visibility 10.0 miles
Clouds Clear
Dew Point 62 °F
Humidity 81%
Rainfall 0.00 in
Snow Depth Not available.
UV 2 out of 12
Pollen 7.40 out of 12
Air Quality Not available.
Flu Activity Not available.
METAR KILN 051254Z AUTO 04004KT 10SM CLR 21/16 A3007 RMK AO2 SLP176 T02110156

More Conditions Fewer Conditions

10-Day Weather Forecast

×

Almanac

Astronomy

Aug. 05, 2015 Rise Set
Actual Time
Civil Twilight
Nautical Twilight
Astronomical Twilight
Moon
Length of Visible Light
Length of Day
Tomorrow will be .
, % of the Moon is Illuminated

Today's Extremes

State Highs State Lows

Community

WunderPhotos

Upload Photos

1,844,184 photos uploaded!

WunderBlogs® & News

Nearby

Air Quality

  Air Quality AQ Index Pollutant
Not available.

Snow Depth

Station Depth Elevation

Earthquake Activity

City Distance Mag. Time & Date
Minimum magnitude displayed is 2.5.

Coastal Water Temperatures

Place Temperature

Stations

Nearby Weather Stations

Station Location Temp. Windchill Dew Point Humidity Wind Precip. Elev Updated Type